CES4120 ZBAA-ZSQD
Flight info
| Callsign | CES4120 |
|---|---|
| Flight time | N/A |
| Altitude | 31100 |
| Route | MUGLO W34 ANRAT W575 GOTSU W201 HCH |
| Aircraft | A20N/M-SDE2E3FGHIRWXY/LB1 |
Departure
| Time | 2026-05-04 14:04 |
|---|---|
| Airport | Beijing Capital International Airport (ZBAA) |
Arrival
| Time | N/A |
|---|---|
| Airport | Qingdao Jiaodong International Airport (ZSQD) |
| Time | Latitude | Longitude | Altitude | Speed | Heading |
|---|---|---|---|---|---|
| 2026-05-04 13:39 | 40.06036 | 116.61007 | 123 ft | 0 kts | 263° |
| 2026-05-04 13:51 | 40.06037 | 116.61016 | 107 ft | 2 kts | 263° |
| 2026-05-04 13:52 | 40.06041 | 116.61055 | 130 ft | 2 kts | 263° |
| 2026-05-04 13:52 | 40.06043 | 116.61074 | 122 ft | 2 kts | 249° |
| 2026-05-04 13:52 | 40.06050 | 116.61091 | 120 ft | 2 kts | 227° |
| 2026-05-04 13:53 | 40.06061 | 116.61104 | 120 ft | 2 kts | 202° |
| 2026-05-04 13:53 | 40.06075 | 116.61109 | 119 ft | 2 kts | 177° |
| 2026-05-04 13:53 | 40.06077 | 116.61109 | 119 ft | 0 kts | 176° |
| 2026-05-04 13:56 | 40.06006 | 116.61121 | 121 ft | 12 kts | 173° |
| 2026-05-04 13:57 | 40.05931 | 116.61133 | 121 ft | 12 kts | 173° |
| 2026-05-04 13:57 | 40.05858 | 116.61146 | 121 ft | 8 kts | 170° |
| 2026-05-04 13:58 | 40.05841 | 116.61441 | 122 ft | 2 kts | 83° |
| 2026-05-04 13:58 | 40.05848 | 116.61520 | 120 ft | 0 kts | 82° |
| 2026-05-04 13:58 | 40.05851 | 116.61549 | 121 ft | 7 kts | 82° |
| 2026-05-04 13:59 | 40.05855 | 116.61590 | 122 ft | 0 kts | 82° |
| 2026-05-04 14:02 | 40.05858 | 116.61616 | 119 ft | 7 kts | 82° |
| 2026-05-04 14:02 | 40.05878 | 116.61694 | 120 ft | 12 kts | 54° |
| 2026-05-04 14:03 | 40.05952 | 116.61751 | 122 ft | 14 kts | 6° |
| 2026-05-04 14:03 | 40.06165 | 116.61723 | 121 ft | 61 kts | 353° |
| 2026-05-04 14:03 | 40.06807 | 116.61622 | 122 ft | 123 kts | 353° |
| 2026-05-04 14:03 | 40.07794 | 116.61457 | 312 ft | 149 kts | 352° |
| 2026-05-04 14:04 | 40.09931 | 116.61238 | 1276 ft | 168 kts | 4° |
| 2026-05-04 14:04 | 40.11108 | 116.61228 | 1770 ft | 171 kts | 348° |
| 2026-05-04 14:04 | 40.12340 | 116.60987 | 2115 ft | 187 kts | 345° |
| 2026-05-04 14:05 | 40.15154 | 116.60443 | 2990 ft | 228 kts | 359° |
| 2026-05-04 14:05 | 40.16746 | 116.61090 | 3506 ft | 256 kts | 34° |
| 2026-05-04 14:05 | 40.17981 | 116.62815 | 4174 ft | 274 kts | 64° |
| 2026-05-04 14:06 | 40.18496 | 116.65252 | 4909 ft | 284 kts | 94° |
| 2026-05-04 14:06 | 40.18250 | 116.67828 | 5269 ft | 285 kts | 107° |
| 2026-05-04 14:06 | 40.17858 | 116.70368 | 5449 ft | 287 kts | 103° |
| 2026-05-04 14:06 | 40.17655 | 116.72982 | 5610 ft | 290 kts | 96° |
| 2026-05-04 14:07 | 40.17668 | 116.75629 | 5746 ft | 292 kts | 91° |
| 2026-05-04 14:07 | 40.17820 | 116.78287 | 5861 ft | 294 kts | 88° |
| 2026-05-04 14:07 | 40.18038 | 116.80950 | 5925 ft | 295 kts | 86° |
| 2026-05-04 14:07 | 40.18274 | 116.83575 | 5925 ft | 295 kts | 86° |
| 2026-05-04 14:08 | 40.18518 | 116.86247 | 6078 ft | 298 kts | 86° |
| 2026-05-04 14:08 | 40.18762 | 116.88950 | 6742 ft | 301 kts | 86° |
| 2026-05-04 14:08 | 40.19001 | 116.91669 | 7834 ft | 302 kts | 85° |